Cambridge, OH (43725)

8:39 AM EDT on July 25, 2014 (GMT -0400)
Downtown Cambridge (KOHCAMBR5) Elev 876 ft | 40.03 °N, 81.59 °W | Change Station

Current weather conditions updated 3 seconds ago

Clear
Clear
62.0 °F
Feels Like 62.0 °F
N
0.0
Wind Variable Wind from NE
Gusts 3.0 mph

Today is forecast to be nearly the same temperature as yesterday.

Today
High -- | Low -- °F
--% Chance of Precip.
Yesterday
High -- | Low -- °F
Precip. -- in
6:18 AM 8:46 PM
Waning Crescent, 2% visible
Pressure 30.11 in
Visibility 10.0 miles
Clouds Clear
Dew Point 54 °F
Humidity 77%
Rainfall 0.00 in
Snow Depth Not available.
UV 1 out of 12
Pollen 5.60 out of 12
Air Quality Not available.
Flu Activity Not available.
METAR KZZV 251153Z AUTO 00000KT 10SM CLR 13/11 A3011 RMK AO2 SLP194 T01330106 10139 20100 53015

More Conditions Fewer Conditions

Pressure 30.11 in
Visibility 10.0 miles
Clouds Clear
Dew Point 54 °F
Humidity 77%
Rainfall 0.00 in
Snow Depth Not available.
UV 1 out of 12
Pollen 5.60 out of 12
Air Quality Not available.
Flu Activity Not available.
METAR KZZV 251153Z AUTO 00000KT 10SM CLR 13/11 A3011 RMK AO2 SLP194 T01330106 10139 20100 53015

More Conditions Fewer Conditions

10-Day Weather Forecast

Almanac

Astronomy

Jul. 25, 2014 Rise Set
Actual Time 6:18 AM EDT 8:46 PM EDT
Civil Twilight 5:47 AM EDT 9:17 PM EDT
Nautical Twilight 5:08 AM EDT 9:56 PM EDT
Astronomical Twilight 4:25 AM EDT 10:38 PM EDT
Moon 5:16 AM EDT 7:43 PM EDT
Length of Visible Light 15h 30m
Length of Day
14h 28m
Tomorrow will be 1m 46s shorter.
Waning Crescent, 2% of the Moon is Illuminated
Today
Waning Crescent
Jul 26
New
Aug 3
First Quarter
Aug 10
Full
Aug 17
Last Quarter

Today's Extremes

State Highs State Lows

Community

WunderPhotos

Upload Photos

1,737,303 photos uploaded!

Nearby

Snow Depth

Station Depth Elevation
No new snow has been reported.

Earthquake Activity

City Distance Mag. Time & Date
No recent earthquake activity has been reported nearby.
Minimum magnitude displayed is 2.5.

Coastal Water Temperatures

Place Temperature
No Stations Reporting

Nearby Weather Stations

Station Location Temp. Dew Point Humidity Wind Precip. Elev Updated Type
Downtown Cambridge, Cambridge, OH 62.0 °F 54 °F 77% NE  at  0.0 mph 0.00 in / hr 876 ft 8:39 AM EDT Rapid Fire
Heller Drive, Newcomerstown, OH 57.1 °F 55 °F 92% SW  at  0.0 mph 0.00 in / hr 792 ft 8:39 AM EDT Rapid Fire
APRSWXNET Zanesville OH , Zanesville, OH 55 °F 53 °F 94% North  at  0 mph 0.00 in / hr 839 ft 8:03 AM EDT MADIS
Falls Twp, North Zanesville, OH 61.2 °F 57 °F 85% NE  at  0.0 mph 0.00 in / hr 800 ft 8:39 AM EDT Rapid Fire
OHDOT 11-Coshocton County Garage, Coshocton, OH 52 °F 51 °F 94% NNW  at  2 mph 0.00 in / hr 762 ft 6:41 AM EDT MADIS

Show More Stations Show Fewer Stations